Time;durP1;ratioP1;P1;durP2;ratioP2;P2;SDS_P1;SDS_P2;PMS_P1;PMS_P2;Temp;Humidity;BMP_temperature;BMP_pressure;BME280_temperature;BME280_humidity;BME280_pressure;Samples;Min_cycle;Max_cycle;Signal;HPM_P1;HPM_P2
2021/11/06 00:01:32;;;;;;;2.03;1.87;;;;;;;5.93;79.50;99951.34;5032492;28;20095;-68
2021/11/06 00:03:57;;;;;;;4.90;1.90;;;;;;;6.00;78.76;99952.38;5033002;28;20033;-68
2021/11/06 00:06:23;;;;;;;2.90;1.67;;;;;;;6.00;79.30;99952.38;5034301;28;20037;-64
2021/11/06 00:08:48;;;;;;;1.80;1.47;;;;;;;6.02;79.30;99974.19;5015292;28;20040;-67
2021/11/06 00:11:14;;;;;;;5.63;2.33;;;;;;;5.89;79.22;99956.94;5032285;28;20037;-66
2021/11/06 00:13:40;;;;;;;1.90;1.70;;;;;;;5.91;79.57;99964.69;5032500;28;20047;-67
2021/11/06 00:16:05;;;;;;;2.17;1.70;;;;;;;5.96;80.13;99969.53;5032191;28;20041;-68
2021/11/06 00:18:31;;;;;;;2.83;1.77;;;;;;;5.89;80.05;99970.13;5032492;28;20044;-67
2021/11/06 00:20:56;;;;;;;3.47;1.53;;;;;;;5.90;80.44;99977.09;5032671;28;20044;-67
2021/11/06 00:23:22;;;;;;;4.20;2.20;;;;;;;5.95;80.55;99986.38;5032165;28;20481;-67
2021/11/06 00:25:48;;;;;;;2.70;2.10;;;;;;;5.98;80.89;99991.34;5032070;28;20037;-65
2021/11/06 00:28:13;;;;;;;2.20;2.00;;;;;;;5.99;81.40;99993.84;5014555;28;20037;-68
2021/11/06 00:30:39;;;;;;;2.30;2.10;;;;;;;5.97;81.25;99989.69;5031349;28;20026;-67
2021/11/06 00:33:04;;;;;;;1.80;1.57;;;;;;;6.02;81.56;99998.00;5034320;28;20304;-66
2021/11/06 00:35:30;;;;;;;2.33;2.03;;;;;;;5.91;81.41;99996.41;5034727;28;20065;-66
2021/11/06 00:37:55;;;;;;;4.73;1.97;;;;;;;5.69;81.69;99971.22;5033319;28;20040;-66
2021/11/06 00:40:22;;;;;;;3.57;2.10;;;;;;;5.62;81.00;99979.91;5014172;28;20081;-66
2021/11/06 00:42:48;;;;;;;2.23;2.03;;;;;;;5.52;81.94;99978.19;5031778;28;20119;-67
2021/11/06 00:45:14;;;;;;;2.40;2.20;;;;;;;5.31;82.07;99960.94;4997838;28;20472;-66
2021/11/06 00:47:41;;;;;;;2.10;1.77;;;;;;;5.32;82.46;99978.44;5014335;28;20044;-68
2021/11/06 00:50:08;;;;;;;2.00;1.80;;;;;;;5.34;81.89;99981.75;5033013;28;20076;-67
2021/11/06 00:52:34;;;;;;;4.90;2.33;;;;;;;5.38;81.28;99980.47;5034743;28;20037;-68
2021/11/06 00:55:00;;;;;;;2.53;1.73;;;;;;;5.50;81.03;99981.94;5036272;28;20042;-67
2021/11/06 00:57:26;;;;;;;2.70;2.40;;;;;;;5.61;80.98;100002.84;5033664;28;20041;-66
2021/11/06 00:59:52;;;;;;;4.23;1.73;;;;;;;5.63;80.40;100003.53;5033667;28;20453;-67
2021/11/06 01:02:17;;;;;;;2.00;1.80;;;;;;;5.54;79.91;99985.94;5031650;28;20047;-69
2021/11/06 01:04:43;;;;;;;2.83;1.73;;;;;;;5.71;79.89;100002.78;5031955;28;20128;-68
2021/11/06 01:07:09;;;;;;;1.83;1.70;;;;;;;5.75;78.98;100007.59;5036010;28;20033;-68
2021/11/06 01:09:34;;;;;;;1.97;1.80;;;;;;;5.65;79.03;99983.09;5035525;28;20041;-68
2021/11/06 01:12:00;;;;;;;2.17;2.00;;;;;;;5.71;78.71;100003.63;5017766;28;20115;-66
2021/11/06 01:14:25;;;;;;;1.87;1.57;;;;;;;5.80;78.67;100010.66;5035395;28;20041;-66
2021/11/06 01:16:51;;;;;;;2.20;2.00;;;;;;;5.79;79.35;100019.56;5036173;28;20033;-67
2021/11/06 01:19:16;;;;;;;2.37;2.10;;;;;;;5.78;78.82;100014.41;5036700;28;20071;-68
2021/11/06 01:21:42;;;;;;;3.73;1.70;;;;;;;5.79;78.87;100014.28;5037305;28;20120;-67
2021/11/06 01:24:08;;;;;;;3.07;1.93;;;;;;;5.76;79.34;100014.56;5035446;28;20048;-66
2021/11/06 01:26:34;;;;;;;2.37;2.00;;;;;;;5.66;79.56;100005.88;5035303;28;20037;-65
2021/11/06 01:28:59;;;;;;;2.40;1.80;;;;;;;5.50;79.64;99987.22;5035219;28;20033;-66
2021/11/06 01:31:26;;;;;;;1.87;1.73;;;;;;;5.51;80.48;100004.75;5017905;28;20048;-65
2021/11/06 01:33:52;;;;;;;1.90;1.70;;;;;;;5.54;80.77;100009.72;5035453;28;20096;-67
2021/11/06 01:36:18;;;;;;;2.23;2.00;;;;;;;5.51;81.57;100004.75;5036959;28;20404;-67
2021/11/06 01:38:47;;;;;;;2.53;1.77;;;;;;;5.44;80.12;99998.38;5035014;28;20551;-68
2021/11/06 01:41:13;;;;;;;1.42;1.33;;;;;;;5.50;80.73;100014.47;5034990;28;20054;-66
2021/11/06 01:43:39;;;;;;;2.40;2.00;;;;;;;5.43;79.91;100020.47;5034952;28;20041;-66
2021/11/06 01:46:06;;;;;;;1.77;1.67;;;;;;;5.34;80.12;100010.81;5017561;28;20408;-66
2021/11/06 01:48:33;;;;;;;2.70;1.40;;;;;;;5.23;80.34;100011.84;5017632;28;20040;-67
2021/11/06 01:51:00;;;;;;;2.30;1.40;;;;;;;5.18;80.22;100014.91;5019901;28;20045;-66
2021/11/06 01:53:26;;;;;;;1.93;1.60;;;;;;;5.06;80.59;100008.16;5035004;28;20405;-68
2021/11/06 01:55:54;;;;;;;1.70;1.60;;;;;;;5.07;80.39;100015.09;5034884;28;20060;-66
2021/11/06 01:58:21;;;;;;;1.53;1.37;;;;;;;5.01;80.80;100013.03;5034711;28;20523;-66
2021/11/06 02:00:47;;;;;;;2.77;1.53;;;;;;;4.91;80.86;100009.59;5016912;28;20590;-68
2021/11/06 02:03:14;;;;;;;2.00;1.80;;;;;;;4.88;81.87;100020.44;5035039;28;20037;-68
2021/11/06 02:05:43;;;;;;;1.70;1.60;;;;;;;4.79;81.72;100008.13;5036876;28;20487;-67
2021/11/06 02:08:10;;;;;;;1.90;1.80;;;;;;;4.79;81.69;100002.84;5017505;28;20467;-65
2021/11/06 02:10:37;;;;;;;2.10;1.90;;;;;;;4.86;81.08;100007.38;5017692;28;20041;-67
2021/11/06 02:13:03;;;;;;;2.20;2.00;;;;;;;4.89;81.63;100014.19;5034191;28;20033;-67
2021/11/06 02:15:29;;;;;;;2.07;1.87;;;;;;;4.68;81.63;99974.00;5033525;28;20099;-68
2021/11/06 02:17:54;;;;;;;1.70;1.60;;;;;;;4.91;81.25;100014.88;5016749;28;20124;-66
2021/11/06 02:20:22;;;;;;;3.77;1.60;;;;;;;4.87;81.23;100000.31;5017940;28;20040;-67
2021/11/06 02:22:48;;;;;;;2.00;1.80;;;;;;;4.77;80.41;99975.78;5034307;28;20034;-67
2021/11/06 02:25:16;;;;;;;1.80;1.70;;;;;;;5.09;81.33;100017.59;5034200;28;20547;-67
2021/11/06 02:27:42;;;;;;;2.10;1.92;;;;;;;5.12;80.89;100015.47;5016446;28;20044;-66
2021/11/06 02:30:11;;;;;;;2.37;1.80;;;;;;;5.11;80.72;100018.28;5034240;28;20132;-66
2021/11/06 02:32:36;;;;;;;2.43;1.60;;;;;;;5.07;80.27;100007.19;5034364;28;20099;-67
2021/11/06 02:35:03;;;;;;;2.10;1.90;;;;;;;5.20;80.61;100018.25;5035666;28;20041;-66
2021/11/06 02:37:28;;;;;;;2.10;1.90;;;;;;;5.24;80.89;100024.91;5034278;28;20510;-68
2021/11/06 02:39:54;;;;;;;1.97;1.87;;;;;;;5.22;79.95;100016.28;5034032;28;20065;-66
2021/11/06 02:42:20;;;;;;;2.57;1.60;;;;;;;5.20;80.47;100012.09;5033010;28;20042;-65
2021/11/06 02:44:47;;;;;;;2.00;1.80;;;;;;;5.27;79.75;100018.50;5034158;28;20021;-65
2021/11/06 02:47:13;;;;;;;2.67;1.80;;;;;;;5.16;79.99;99993.09;5033956;28;20554;-67
2021/11/06 02:49:39;;;;;;;2.30;2.00;;;;;;;5.29;79.97;100011.25;5033514;28;20037;-68
2021/11/06 02:52:05;;;;;;;2.10;2.00;;;;;;;5.34;80.20;100016.91;5034662;28;20091;-68
2021/11/06 02:54:31;;;;;;;3.73;1.73;;;;;;;5.29;79.65;100009.44;5033580;28;20033;-67
2021/11/06 02:56:57;;;;;;;1.53;1.43;;;;;;;5.31;79.30;100005.81;5017650;28;20107;-66
2021/11/06 02:59:22;;;;;;;2.47;1.50;;;;;;;5.32;79.64;100010.13;5033478;28;20033;-67
2021/11/06 03:01:49;;;;;;;4.27;2.20;;;;;;;5.36;79.45;100017.59;5034300;28;20037;-65
2021/11/06 03:04:15;;;;;;;2.17;1.97;;;;;;;5.25;80.12;100008.06;5016483;28;20500;-66
2021/11/06 03:06:41;;;;;;;3.17;1.90;;;;;;;5.26;79.71;100004.47;5034350;28;20048;-66
2021/11/06 03:09:08;;;;;;;1.80;1.40;;;;;;;5.27;79.25;100008.75;5033743;28;20049;-67
2021/11/06 03:11:36;;;;;;;2.73;1.80;;;;;;;5.20;79.69;100007.69;5033730;28;20065;-68
2021/11/06 03:14:04;;;;;;;1.85;1.60;;;;;;;5.29;80.40;100006.81;5033502;28;20111;-67
2021/11/06 03:16:29;;;;;;;2.50;1.80;;;;;;;5.21;80.06;99998.78;5033446;28;20393;-67
2021/11/06 03:18:55;;;;;;;2.20;1.80;;;;;;;5.28;80.85;100005.13;5033288;28;20033;-67
2021/11/06 03:21:21;;;;;;;1.90;1.70;;;;;;;5.24;80.86;99993.22;5033729;28;20542;-66
2021/11/06 03:23:48;;;;;;;2.13;1.97;;;;;;;5.16;80.61;99990.44;5033505;28;20072;-67
2021/11/06 03:26:14;;;;;;;3.63;1.83;;;;;;;5.06;80.99;99976.47;5033526;28;20033;-66
2021/11/06 03:28:40;;;;;;;2.10;1.60;;;;;;;5.13;81.09;100001.31;5014972;28;20511;-69
2021/11/06 03:31:06;;;;;;;1.90;1.70;;;;;;;5.11;80.78;99998.00;5033214;28;20061;-67
2021/11/06 03:33:32;;;;;;;1.73;1.50;;;;;;;5.07;80.84;99986.06;5033377;28;20558;-68
2021/11/06 03:35:58;;;;;;;1.87;1.67;;;;;;;5.23;81.01;99988.91;5034472;28;20477;-66
2021/11/06 03:38:24;;;;;;;2.17;1.30;;;;;;;5.32;79.90;99994.28;5032933;28;20124;-66
2021/11/06 03:40:51;;;;;;;3.03;1.67;;;;;;;5.33;80.66;99995.94;5032910;28;20052;-67
2021/11/06 03:43:17;;;;;;;2.00;1.60;;;;;;;5.33;80.53;100006.50;5031721;28;20044;-68
2021/11/06 03:45:43;;;;;;;1.50;1.40;;;;;;;5.22;80.94;99987.25;5015221;28;20059;-66
2021/11/06 03:48:08;;;;;;;1.73;1.63;;;;;;;5.26;80.93;99995.72;5032846;28;20048;-67
2021/11/06 03:50:34;;;;;;;3.47;1.97;;;;;;;5.23;80.99;99986.28;5034338;28;20128;-67
2021/11/06 03:53:00;;;;;;;1.73;1.63;;;;;;;5.20;80.72;99975.16;5033131;28;20129;-66
2021/11/06 03:55:26;;;;;;;2.47;2.27;;;;;;;5.20;81.02;99975.16;5032630;28;20029;-66
2021/11/06 03:57:53;;;;;;;2.17;1.90;;;;;;;5.25;81.02;99994.03;5032503;28;20041;-66
2021/11/06 04:00:19;;;;;;;3.10;1.93;;;;;;;5.27;80.63;99998.19;5014614;28;20041;-67
2021/11/06 04:02:45;;;;;;;2.10;1.90;;;;;;;5.24;80.42;99995.03;5032554;28;20034;-65
2021/11/06 04:05:12;;;;;;;2.43;2.23;;;;;;;5.24;80.73;99992.38;5034158;28;20041;-67
2021/11/06 04:07:37;;;;;;;1.97;1.67;;;;;;;5.26;80.15;99995.72;5018586;28;20044;-66
2021/11/06 04:10:04;;;;;;;2.17;2.07;;;;;;;5.27;80.31;100000.84;5015189;28;20049;-65
2021/11/06 04:12:29;;;;;;;2.27;2.10;;;;;;;5.34;80.90;100010.81;5032361;28;20041;-67
2021/11/06 04:14:55;;;;;;;1.90;1.70;;;;;;;5.27;80.11;100008.75;5032538;28;20113;-68
2021/11/06 04:17:21;;;;;;;2.50;1.90;;;;;;;5.15;80.91;100004.63;5032523;28;20036;-66
2021/11/06 04:19:47;;;;;;;2.23;2.03;;;;;;;5.31;80.95;100019.03;5032810;28;20037;-66
2021/11/06 04:22:12;;;;;;;2.60;2.23;;;;;;;5.30;80.55;100012.91;5032491;28;20037;-67
2021/11/06 04:24:39;;;;;;;2.53;2.33;;;;;;;5.36;81.03;100019.41;5032418;28;20041;-66
2021/11/06 04:27:06;;;;;;;3.90;2.30;;;;;;;5.35;80.20;100015.09;5032366;28;20399;-66
2021/11/06 04:29:32;;;;;;;2.13;1.93;;;;;;;5.28;81.44;100005.13;5030989;28;20037;-66
2021/11/06 04:31:58;;;;;;;4.40;3.37;;;;;;;5.30;80.98;100023.47;5032085;28;20141;-68
2021/11/06 04:34:23;;;;;;;1.77;1.67;;;;;;;5.16;80.71;99990.44;5033306;28;20550;-64
2021/11/06 04:36:49;;;;;;;3.30;2.70;;;;;;;5.19;81.40;99995.44;5015458;28;20037;-65
2021/11/06 04:39:17;;;;;;;1.90;1.70;;;;;;;5.15;80.39;99994.06;5030095;28;20084;-65
2021/11/06 04:41:44;;;;;;;1.97;1.87;;;;;;;5.16;79.88;99989.63;5032067;28;20084;-67
2021/11/06 04:44:10;;;;;;;1.60;1.50;;;;;;;5.18;80.13;99991.13;5031750;28;20404;-68
2021/11/06 04:46:35;;;;;;;2.50;1.90;;;;;;;5.31;80.09;100003.19;5031985;28;20025;-65
2021/11/06 04:49:01;;;;;;;1.67;1.50;;;;;;;5.28;79.83;100001.66;5031766;28;20416;-67
2021/11/06 04:51:27;;;;;;;2.27;1.70;;;;;;;5.26;80.61;100004.47;5033098;28;20484;-66
2021/11/06 04:53:53;;;;;;;2.10;1.40;;;;;;;5.30;80.09;100005.00;5014305;28;20025;-66
2021/11/06 04:56:18;;;;;;;1.70;1.60;;;;;;;5.30;80.09;100007.63;5030751;28;20066;-65
2021/11/06 04:58:47;;;;;;;1.63;1.40;;;;;;;5.22;81.50;100018.94;5032000;28;20037;-68
2021/11/06 05:01:13;;;;;;;2.40;2.00;;;;;;;5.17;81.02;100007.13;5013996;28;20040;-69
2021/11/06 05:03:38;;;;;;;3.27;2.20;;;;;;;5.15;81.79;100007.28;5031422;28;20068;-65
2021/11/06 05:06:04;;;;;;;2.83;2.20;;;;;;;5.14;81.83;100008.25;5032813;28;20044;-66
2021/11/06 05:08:29;;;;;;;2.33;2.13;;;;;;;5.14;81.41;100018.81;5031750;28;20041;-66
2021/11/06 05:10:55;;;;;;;2.27;2.00;;;;;;;5.06;82.07;100000.25;5031948;28;20041;-65
2021/11/06 05:13:21;;;;;;;2.00;1.80;;;;;;;5.08;81.69;99997.44;5014938;28;20444;-66
2021/11/06 05:15:46;;;;;;;1.97;1.77;;;;;;;5.05;81.62;100001.22;5034149;28;20038;-65
2021/11/06 05:18:13;;;;;;;2.70;1.80;;;;;;;5.13;82.24;100009.22;5034920;28;20034;-66
2021/11/06 05:20:42;;;;;;;2.20;2.00;;;;;;;5.12;82.02;99997.00;5033391;28;20176;-66
2021/11/06 05:23:07;;;;;;;4.13;2.58;;;;;;;5.12;81.61;100010.22;5031779;28;20029;-67
2021/11/06 05:25:33;;;;;;;3.87;1.73;;;;;;;5.03;81.64;99989.97;5031787;28;20040;-67
2021/11/06 05:27:58;;;;;;;3.00;2.20;;;;;;;5.01;81.92;99991.94;5031729;28;20131;-67
2021/11/06 05:30:24;;;;;;;4.37;2.10;;;;;;;5.09;82.14;100013.13;5013900;28;20404;-66
2021/11/06 05:32:50;;;;;;;2.97;2.20;;;;;;;5.10;82.41;100009.53;5014304;28;20124;-66
2021/11/06 05:35:16;;;;;;;2.57;2.37;;;;;;;5.05;82.62;100001.22;5014654;28;20095;-66
2021/11/06 05:37:42;;;;;;;2.60;2.17;;;;;;;5.15;82.96;100007.28;5033707;28;20046;-66
2021/11/06 05:40:10;;;;;;;3.70;3.37;;;;;;;5.13;82.14;100016.31;5034379;28;20428;-67
2021/11/06 05:42:36;;;;;;;2.40;2.20;;;;;;;5.04;83.70;99996.91;5035468;28;20049;-65
2021/11/06 05:45:04;;;;;;;2.50;2.30;;;;;;;5.07;83.54;100001.91;5033567;28;20099;-66
2021/11/06 05:47:30;;;;;;;3.55;2.35;;;;;;;4.94;83.47;99981.13;5031204;28;20378;-66
2021/11/06 05:49:55;;;;;;;2.90;2.17;;;;;;;5.06;83.48;99994.97;5033559;28;20072;-67
2021/11/06 05:52:21;;;;;;;2.70;2.20;;;;;;;5.05;83.74;99993.31;5034694;28;20033;-66
2021/11/06 05:54:47;;;;;;;3.13;2.70;;;;;;;5.04;82.97;99983.72;5035059;28;20128;-66
2021/11/06 05:57:12;;;;;;;2.80;2.60;;;;;;;5.07;83.06;99983.44;5035078;28;20037;-68
2021/11/06 05:59:38;;;;;;;4.10;2.60;;;;;;;5.05;82.77;99993.31;5035586;28;20053;-66
2021/11/06 06:02:04;;;;;;;4.73;3.77;;;;;;;5.07;83.77;100001.06;5035114;28;20132;-67
2021/11/06 06:04:30;;;;;;;3.27;2.97;;;;;;;5.04;83.77;99982.88;5017402;28;20039;-67
2021/11/06 06:06:55;;;;;;;4.50;2.73;;;;;;;5.09;84.10;100004.38;5035782;28;20037;-67
2021/11/06 06:09:21;;;;;;;3.33;3.03;;;;;;;5.03;84.28;99992.63;5016981;28;20037;-67
2021/11/06 06:11:46;;;;;;;2.30;2.10;;;;;;;5.03;83.12;99976.78;5017059;28;20088;-68
2021/11/06 06:14:12;;;;;;;7.07;3.50;;;;;;;5.05;84.11;99971.34;5034527;28;20412;-67
2021/11/06 06:16:38;;;;;;;3.30;3.00;;;;;;;5.16;84.02;99994.91;5016888;28;20044;-68
2021/11/06 06:19:03;;;;;;;3.27;2.97;;;;;;;5.11;84.05;99982.16;5034847;28;20116;-66
2021/11/06 06:21:30;;;;;;;3.63;2.93;;;;;;;5.16;83.64;99990.44;5036407;28;20036;-66
2021/11/06 06:23:56;;;;;;;3.90;3.50;;;;;;;5.21;84.11;99985.59;5034515;28;20044;-65
2021/11/06 06:26:22;;;;;;;4.93;3.67;;;;;;;5.19;83.53;99982.25;5033247;28;20029;-67
2021/11/06 06:28:47;;;;;;;5.10;4.23;;;;;;;5.28;83.51;99983.19;5016679;28;20048;-68
2021/11/06 06:31:13;;;;;;;4.50;3.77;;;;;;;5.21;84.17;99967.13;5016739;28;20037;-68
2021/11/06 06:33:39;;;;;;;5.60;4.13;;;;;;;5.24;83.80;99973.91;5034239;28;20044;-71
2021/11/06 06:36:05;;;;;;;6.77;4.10;;;;;;;5.27;83.71;99998.19;5035949;28;20037;-68
2021/11/06 06:38:33;;;;;;;4.97;3.60;;;;;;;5.13;83.09;99964.34;5033961;28;20085;-68
2021/11/06 06:41:00;;;;;;;7.20;4.93;;;;;;;5.26;83.39;99993.91;5034056;28;20045;-66
2021/11/06 06:43:26;;;;;;;6.30;4.80;;;;;;;5.23;83.73;99990.72;5034051;28;20400;-66
2021/11/06 06:45:52;;;;;;;3.90;3.30;;;;;;;5.20;84.24;99972.50;5016212;28;20037;-67
2021/11/06 06:48:18;;;;;;;3.53;3.07;;;;;;;5.25;83.46;99989.59;5034050;28;20041;-68
2021/11/06 06:50:46;;;;;;;4.00;3.20;;;;;;;4.85;83.42;99912.56;5035861;28;20095;-67
2021/11/06 06:53:12;;;;;;;5.77;2.77;;;;;;;5.09;82.45;99965.63;5016159;28;20060;-67
2021/11/06 06:55:38;;;;;;;3.00;2.60;;;;;;;5.20;83.06;99978.66;5016113;28;20408;-68
2021/11/06 06:58:03;;;;;;;4.73;2.77;;;;;;;5.09;82.72;99968.28;5033690;28;20091;-68
2021/11/06 07:00:29;;;;;;;6.03;2.87;;;;;;;5.08;82.37;99976.34;5033894;28;20085;-65
2021/11/06 07:02:54;;;;;;;5.17;2.00;;;;;;;5.07;82.62;99980.78;5032835;28;20471;-67
2021/11/06 07:05:20;;;;;;;2.13;1.73;;;;;;;5.09;82.42;99986.75;5034957;28;20483;-67
2021/11/06 07:07:45;;;;;;;2.70;2.00;;;;;;;5.08;82.78;99976.34;5015706;28;20132;-66
2021/11/06 07:10:11;;;;;;;3.87;2.10;;;;;;;5.12;82.68;99977.69;5015842;28;20396;-66
2021/11/06 07:12:37;;;;;;;1.90;1.80;;;;;;;5.12;82.86;99977.69;5033407;28;20033;-68
2021/11/06 07:15:03;;;;;;;2.37;1.80;;;;;;;5.06;82.53;99970.38;5033615;28;20489;-67
2021/11/06 07:17:29;;;;;;;2.83;2.27;;;;;;;5.15;81.34;99977.41;5033645;28;20047;-68
2021/11/06 07:19:54;;;;;;;3.50;1.77;;;;;;;5.21;81.87;99985.59;5033125;28;20037;-66
2021/11/06 07:22:20;;;;;;;5.17;2.03;;;;;;;5.13;81.43;99971.44;5033909;28;20056;-68
2021/11/06 07:24:45;;;;;;;5.53;2.23;;;;;;;5.13;81.98;99984.66;5033272;28;20040;-67
2021/11/06 07:27:11;;;;;;;3.10;1.77;;;;;;;5.16;82.01;99981.69;5015769;28;20039;-68
2021/11/06 07:29:37;;;;;;;3.60;1.60;;;;;;;5.15;82.26;99972.97;5033350;28;20037;-68
2021/11/06 07:32:03;;;;;;;4.80;1.80;;;;;;;5.20;82.60;99949.63;5033408;28;20423;-67
2021/11/06 07:34:29;;;;;;;2.00;1.80;;;;;;;5.31;81.42;99959.13;5033609;28;20500;-66
2021/11/06 07:36:55;;;;;;;2.90;1.90;;;;;;;5.48;82.08;99974.16;5033721;28;20124;-68
2021/11/06 07:39:26;;;;;;;7.60;1.67;;;;;;;5.53;81.22;99971.09;5033078;28;20503;-66
2021/11/06 07:41:53;;;;;;;5.17;2.20;;;;;;;5.55;81.15;99967.31;5032865;28;20536;-67
2021/11/06 07:44:19;;;;;;;4.03;2.10;;;;;;;5.53;81.55;99963.16;5032960;28;20076;-67
2021/11/06 07:46:45;;;;;;;5.30;2.23;;;;;;;5.57;81.52;99962.72;5015263;28;20040;-67
2021/11/06 07:49:10;;;;;;;5.37;2.50;;;;;;;5.58;81.02;99960.91;5033142;28;20033;-68
2021/11/06 07:51:36;;;;;;;6.57;2.60;;;;;;;5.54;81.59;99951.63;5033663;28;20043;-66
2021/11/06 07:54:01;;;;;;;3.80;2.53;;;;;;;5.41;80.92;99956.41;5032551;28;20081;-68
2021/11/06 07:56:27;;;;;;;3.93;2.53;;;;;;;5.48;81.06;99963.59;5032421;28;20492;-66
2021/11/06 07:58:52;;;;;;;5.27;2.77;;;;;;;5.44;80.83;99945.56;5032629;28;20063;-66
2021/11/06 08:01:20;;;;;;;5.97;2.67;;;;;;;5.50;81.78;99947.63;5032585;28;20095;-68
2021/11/06 08:03:45;;;;;;;3.33;2.23;;;;;;;5.58;81.59;99958.25;5032452;28;20085;-67
2021/11/06 08:06:12;;;;;;;3.97;3.20;;;;;;;5.49;81.58;99938.00;5033890;28;20040;-67
2021/11/06 08:08:38;;;;;;;4.97;3.20;;;;;;;5.62;81.86;99950.84;5032324;28;20080;-66
2021/11/06 08:11:03;;;;;;;4.93;4.00;;;;;;;5.62;81.98;99946.41;5032122;28;20033;-68
2021/11/06 08:13:31;;;;;;;5.43;4.87;;;;;;;5.73;81.94;99950.63;5032522;28;20076;-65
2021/11/06 08:15:56;;;;;;;4.73;4.33;;;;;;;5.66;81.72;99939.84;5032387;28;20036;-66
2021/11/06 08:18:22;;;;;;;5.87;4.70;;;;;;;5.62;82.78;99948.22;5014398;28;20033;-68
2021/11/06 08:20:48;;;;;;;4.83;4.10;;;;;;;5.57;82.35;99931.00;5032864;28;20083;-66
2021/11/06 08:23:13;;;;;;;6.03;5.00;;;;;;;5.65;82.48;99942.63;5032364;28;20037;-69
2021/11/06 08:25:39;;;;;;;7.37;6.00;;;;;;;5.66;83.51;99934.56;5014391;28;20138;-66
2021/11/06 08:28:05;;;;;;;6.53;4.27;;;;;;;5.70;82.87;99940.34;5032358;28;20093;-67
2021/11/06 08:30:30;;;;;;;6.40;3.70;;;;;;;5.67;82.01;99941.50;5032340;28;20467;-67
2021/11/06 08:32:57;;;;;;;5.47;3.43;;;;;;;5.58;83.15;99937.13;5030827;28;20048;-66
2021/11/06 08:35:26;;;;;;;3.50;3.20;;;;;;;5.64;83.20;99941.81;4999454;28;20033;-67
2021/11/06 08:37:52;;;;;;;3.40;3.10;;;;;;;5.63;83.71;99961.28;5031840;28;20060;-67
2021/11/06 08:40:19;;;;;;;4.03;2.77;;;;;;;5.37;82.22;99955.06;5031652;28;20138;-66
2021/11/06 08:42:47;;;;;;;3.70;1.90;;;;;;;5.30;81.07;99986.50;5032249;28;20053;-66
2021/11/06 08:45:14;;;;;;;2.47;1.42;;;;;;;5.03;80.11;99965.41;5032298;28;20037;-68
2021/11/06 08:47:41;;;;;;;1.07;0.97;;;;;;;4.89;79.43;99982.53;5014380;28;20029;-67
2021/11/06 08:50:11;;;;;;;1.53;1.10;;;;;;;4.74;79.40;99990.09;5034176;28;20041;-68
2021/11/06 08:52:37;;;;;;;1.63;1.00;;;;;;;4.58;79.92;99968.75;5031989;28;20038;-67
2021/11/06 08:55:05;;;;;;;3.53;1.57;;;;;;;4.54;81.08;99978.75;5031774;28;20051;-68
2021/11/06 08:57:33;;;;;;;1.50;1.40;;;;;;;4.54;81.49;99988.47;5031724;28;20036;-69
2021/11/06 09:00:05;;;;;;;1.40;1.30;;;;;;;4.48;82.08;99989.88;5031813;28;20144;-67
2021/11/06 09:02:35;;;;;;;0.90;0.90;;;;;;;4.47;81.89;99993.50;5016113;28;20049;-68
2021/11/06 09:05:06;;;;;;;1.50;1.40;;;;;;;4.49;82.45;99986.28;5032504;28;20272;-68
2021/11/06 09:07:33;;;;;;;3.33;1.30;;;;;;;4.53;82.81;99987.63;5031775;28;20064;-67
2021/11/06 09:10:00;;;;;;;1.40;1.30;;;;;;;4.50;82.52;99984.47;5032231;28;20095;-67
2021/11/06 09:12:26;;;;;;;6.13;2.37;;;;;;;4.39;82.11;99974.91;5014645;28;20363;-68
2021/11/06 09:14:52;;;;;;;1.63;1.27;;;;;;;4.46;83.19;99978.66;5032056;28;20351;-68
2021/11/06 09:17:18;;;;;;;1.50;1.27;;;;;;;4.40;83.79;99971.31;5014569;28;20575;-68
2021/11/06 09:19:44;;;;;;;4.53;1.30;;;;;;;4.25;82.61;99954.25;5015204;28;20115;-67
2021/11/06 09:22:10;;;;;;;1.30;1.20;;;;;;;4.36;83.10;99988.38;5033038;28;20280;-67
2021/11/06 09:24:36;;;;;;;1.30;1.17;;;;;;;4.33;83.13;99981.56;5031770;28;20037;-68
2021/11/06 09:27:01;;;;;;;1.97;1.40;;;;;;;4.30;82.46;99970.47;5016525;28;20025;-67
2021/11/06 09:29:27;;;;;;;1.50;1.40;;;;;;;4.30;83.20;99976.59;5035724;28;20045;-68
2021/11/06 09:31:52;;;;;;;1.83;1.33;;;;;;;4.30;83.11;99967.84;5035384;28;20409;-66
2021/11/06 09:34:18;;;;;;;1.67;1.57;;;;;;;4.27;82.73;99954.94;5035700;28;20049;-68
2021/11/06 09:36:44;;;;;;;1.93;1.60;;;;;;;4.42;82.68;99963.25;5002625;28;20120;-67
2021/11/06 09:39:14;;;;;;;1.37;1.13;;;;;;;4.47;82.22;99961.84;5030439;28;20111;-66
2021/11/06 09:41:40;;;;;;;5.40;1.90;;;;;;;4.61;82.26;99969.28;5030669;28;20034;-68
2021/11/06 09:44:07;;;;;;;1.43;1.13;;;;;;;4.63;82.42;99967.38;5014269;28;20798;-66
2021/11/06 09:46:33;;;;;;;3.20;2.10;;;;;;;4.65;82.42;99970.69;5015375;28;20664;-68
2021/11/06 09:48:59;;;;;;;1.50;1.40;;;;;;;4.43;81.44;99955.19;5014359;28;20326;-68
2021/11/06 09:51:25;;;;;;;3.00;1.20;;;;;;;4.52;81.07;99969.31;5017381;28;20037;-65
2021/11/06 09:53:54;;;;;;;1.33;1.10;;;;;;;4.38;82.56;99946.91;5015438;28;20382;-68
2021/11/06 09:56:25;;;;;;;1.30;1.20;;;;;;;4.70;82.41;99978.16;5013997;28;20798;-66
2021/11/06 09:58:54;;;;;;;1.53;1.30;;;;;;;4.58;81.88;99959.03;5014887;28;20037;-65
2021/11/06 10:01:22;;;;;;;2.00;1.20;;;;;;;4.73;81.85;99982.31;5015034;28;20273;-65
2021/11/06 10:03:48;;;;;;;2.63;1.47;;;;;;;4.78;81.26;99969.53;5016007;28;20292;-66
2021/11/06 10:06:28;;;;;;;1.60;1.40;;;;;;;4.76;81.33;99968.84;5018788;28;20037;-68
2021/11/06 10:08:56;;;;;;;1.97;1.10;;;;;;;4.80;81.01;99980.75;5020490;28;20046;-67
2021/11/06 10:11:26;;;;;;;1.60;1.50;;;;;;;4.73;82.18;99979.69;5022621;28;20303;-66
2021/11/06 10:14:00;;;;;;;2.80;1.50;;;;;;;4.77;82.47;99975.78;5016798;28;20046;-65
2021/11/06 10:16:42;;;;;;;1.90;1.27;;;;;;;4.94;82.12;99975.84;5013703;28;20314;-66
2021/11/06 10:19:11;;;;;;;2.03;1.77;;;;;;;5.07;81.25;99966.75;5014279;28;20391;-67
2021/11/06 10:21:43;;;;;;;1.33;1.20;;;;;;;5.09;81.25;99981.47;5015169;28;20042;-68
2021/11/06 10:24:10;;;;;;;1.67;1.57;;;;;;;5.00;81.25;99982.34;5014563;28;20046;-65
2021/11/06 10:26:37;;;;;;;1.60;1.50;;;;;;;4.97;81.06;99974.72;5013257;28;20075;-67
2021/11/06 10:29:15;;;;;;;3.00;1.37;;;;;;;4.94;81.35;99964.47;5014885;28;20036;-67
2021/11/06 10:32:01;;;;;;;2.43;1.93;;;;;;;5.14;81.87;99976.56;5014907;28;20082;-67
2021/11/06 10:34:34;;;;;;;1.90;1.43;;;;;;;5.13;81.04;99974.91;5015140;28;20276;-65
2021/11/06 10:37:12;;;;;;;3.47;1.50;;;;;;;5.11;81.84;99976.88;5014019;28;20073;-70
2021/11/06 10:39:59;;;;;;;2.27;2.07;;;;;;;5.11;81.93;99961.03;4996723;28;20083;-69
2021/11/06 10:42:26;;;;;;;2.13;1.80;;;;;;;5.02;82.20;99956.66;5019764;28;20497;-68
2021/11/06 10:45:11;;;;;;;3.27;1.77;;;;;;;5.07;82.31;99980.78;5036419;28;20038;-67
2021/11/06 10:48:06;;;;;;;3.07;1.73;;;;;;;4.96;82.65;99986.25;5021793;28;20037;-68
2021/11/06 10:50:41;;;;;;;1.80;1.50;;;;;;;4.75;82.21;99954.81;5017402;28;20497;-66
2021/11/06 10:53:09;;;;;;;2.60;2.00;;;;;;;4.57;82.02;99936.28;5013254;28;20068;-68
2021/11/06 10:55:36;;;;;;;2.50;1.87;;;;;;;4.76;82.82;99955.66;5012386;28;20095;-66
2021/11/06 10:58:29;;;;;;;2.27;1.93;;;;;;;5.00;80.82;99970.97;5012804;28;20808;-67
2021/11/06 11:01:01;;;;;;;1.63;1.47;;;;;;;4.97;80.48;99964.19;5014069;28;20525;-66
2021/11/06 11:03:32;;;;;;;5.40;1.90;;;;;;;4.91;80.87;99964.72;5013734;28;20066;-68
2021/11/06 11:06:05;;;;;;;1.53;1.37;;;;;;;4.86;79.93;99953.78;5014638;28;20050;-66
2021/11/06 11:08:31;;;;;;;2.30;1.90;;;;;;;4.96;80.06;99973.06;5012859;28;20116;-68
2021/11/06 11:11:07;;;;;;;2.10;1.50;;;;;;;4.92;80.80;99966.44;5028646;28;20257;-67
2021/11/06 11:13:34;;;;;;;1.67;1.37;;;;;;;4.89;80.95;99966.69;5012383;28;20034;-68
2021/11/06 11:16:11;;;;;;;1.73;1.63;;;;;;;4.91;81.32;99970.00;5012282;28;20044;-67
2021/11/06 11:18:39;;;;;;;2.53;2.27;;;;;;;4.94;82.07;99964.47;5012364;28;20116;-67
2021/11/06 11:21:12;;;;;;;3.53;2.80;;;;;;;4.91;82.26;99944.47;5013868;28;20041;-65
2021/11/06 11:23:52;;;;;;;2.53;1.60;;;;;;;5.03;82.07;99957.47;5013386;28;20037;-69
2021/11/06 11:26:22;;;;;;;2.87;1.87;;;;;;;5.25;82.10;99972.94;5012322;28;20034;-68
2021/11/06 11:28:49;;;;;;;3.07;1.80;;;;;;;5.23;81.55;99969.59;5013290;28;20046;-67
2021/11/06 11:31:16;;;;;;;3.83;2.60;;;;;;;5.31;81.79;99967.06;5013048;28;20474;-67
2021/11/06 11:33:43;;;;;;;4.17;2.60;;;;;;;5.31;82.24;99960.94;5014075;28;20046;-66
2021/11/06 11:36:12;;;;;;;1.90;1.80;;;;;;;5.35;82.19;99954.38;5012896;28;20037;-71
2021/11/06 11:38:42;;;;;;;2.97;1.40;;;;;;;5.28;81.70;99936.50;5014016;28;20034;-67